sensor_id;sensor_type;location;lat;lon;timestamp;P1;durP1;ratioP1;P2;durP2;ratioP2
62903;SDS011;49000;50.698;13.322;2023-11-18T00:02:08;11.07;;;7.03;;
62903;SDS011;49000;50.698;13.322;2023-11-18T00:04:34;12.83;;;7.93;;
62903;SDS011;49000;50.698;13.322;2023-11-18T00:06:59;11.50;;;8.00;;
62903;SDS011;49000;50.698;13.322;2023-11-18T00:09:26;11.20;;;7.23;;
62903;SDS011;49000;50.698;13.322;2023-11-18T00:11:51;11.77;;;6.93;;
62903;SDS011;49000;50.698;13.322;2023-11-18T00:14:17;10.37;;;7.13;;
62903;SDS011;49000;50.698;13.322;2023-11-18T00:16:43;12.50;;;7.70;;
62903;SDS011;49000;50.698;13.322;2023-11-18T00:19:08;12.27;;;8.20;;
62903;SDS011;49000;50.698;13.322;2023-11-18T00:21:34;9.27;;;7.20;;
62903;SDS011;49000;50.698;13.322;2023-11-18T00:24:01;9.70;;;7.00;;
62903;SDS011;49000;50.698;13.322;2023-11-18T00:26:27;8.90;;;7.10;;
62903;SDS011;49000;50.698;13.322;2023-11-18T00:28:52;10.27;;;7.20;;
62903;SDS011;49000;50.698;13.322;2023-11-18T00:31:18;10.57;;;7.40;;
62903;SDS011;49000;50.698;13.322;2023-11-18T00:33:43;10.60;;;7.30;;
62903;SDS011;49000;50.698;13.322;2023-11-18T00:36:09;9.57;;;6.57;;
62903;SDS011;49000;50.698;13.322;2023-11-18T00:38:34;9.90;;;6.57;;
62903;SDS011;49000;50.698;13.322;2023-11-18T00:41:00;8.93;;;6.60;;
62903;SDS011;49000;50.698;13.322;2023-11-18T00:43:26;10.33;;;6.30;;
62903;SDS011;49000;50.698;13.322;2023-11-18T00:45:51;9.33;;;6.33;;
62903;SDS011;49000;50.698;13.322;2023-11-18T00:48:17;8.77;;;5.97;;
62903;SDS011;49000;50.698;13.322;2023-11-18T00:50:42;7.97;;;6.17;;
62903;SDS011;49000;50.698;13.322;2023-11-18T00:53:08;9.60;;;6.50;;
62903;SDS011;49000;50.698;13.322;2023-11-18T00:55:35;8.77;;;5.40;;
62903;SDS011;49000;50.698;13.322;2023-11-18T00:58:00;7.30;;;5.40;;
62903;SDS011;49000;50.698;13.322;2023-11-18T01:00:26;5.90;;;4.83;;
62903;SDS011;49000;50.698;13.322;2023-11-18T01:02:52;8.33;;;5.03;;
62903;SDS011;49000;50.698;13.322;2023-11-18T01:05:19;7.73;;;5.03;;
62903;SDS011;49000;50.698;13.322;2023-11-18T01:07:45;8.93;;;5.20;;
62903;SDS011;49000;50.698;13.322;2023-11-18T01:10:11;8.07;;;5.50;;
62903;SDS011;49000;50.698;13.322;2023-11-18T01:12:38;7.60;;;4.60;;
62903;SDS011;49000;50.698;13.322;2023-11-18T01:15:04;6.60;;;4.40;;
62903;SDS011;49000;50.698;13.322;2023-11-18T01:17:31;6.27;;;4.93;;
62903;SDS011;49000;50.698;13.322;2023-11-18T01:19:57;7.07;;;5.40;;
62903;SDS011;49000;50.698;13.322;2023-11-18T01:22:23;8.57;;;5.70;;
62903;SDS011;49000;50.698;13.322;2023-11-18T01:24:49;8.73;;;6.00;;
62903;SDS011;49000;50.698;13.322;2023-11-18T01:27:16;8.03;;;5.80;;
62903;SDS011;49000;50.698;13.322;2023-11-18T01:29:44;7.53;;;6.07;;
62903;SDS011;49000;50.698;13.322;2023-11-18T01:32:11;9.13;;;6.00;;
62903;SDS011;49000;50.698;13.322;2023-11-18T01:34:37;9.30;;;7.20;;
62903;SDS011;49000;50.698;13.322;2023-11-18T01:37:08;7.40;;;5.70;;
62903;SDS011;49000;50.698;13.322;2023-11-18T01:39:34;6.83;;;5.20;;
62903;SDS011;49000;50.698;13.322;2023-11-18T01:42:00;7.07;;;5.30;;
62903;SDS011;49000;50.698;13.322;2023-11-18T01:44:28;10.93;;;5.33;;
62903;SDS011;49000;50.698;13.322;2023-11-18T01:46:54;7.87;;;5.77;;
62903;SDS011;49000;50.698;13.322;2023-11-18T01:49:21;7.70;;;5.47;;
62903;SDS011;49000;50.698;13.322;2023-11-18T01:51:49;6.17;;;4.57;;
62903;SDS011;49000;50.698;13.322;2023-11-18T01:54:16;6.50;;;4.70;;
62903;SDS011;49000;50.698;13.322;2023-11-18T01:56:47;7.40;;;4.67;;
62903;SDS011;49000;50.698;13.322;2023-11-18T01:59:14;6.20;;;4.27;;
62903;SDS011;49000;50.698;13.322;2023-11-18T02:01:47;6.53;;;4.90;;
62903;SDS011;49000;50.698;13.322;2023-11-18T02:04:18;6.27;;;4.90;;
62903;SDS011;49000;50.698;13.322;2023-11-18T02:06:44;6.20;;;4.50;;
62903;SDS011;49000;50.698;13.322;2023-11-18T02:09:11;5.93;;;4.20;;
62903;SDS011;49000;50.698;13.322;2023-11-18T02:11:39;4.70;;;3.97;;
62903;SDS011;49000;50.698;13.322;2023-11-18T02:14:13;8.77;;;4.63;;
62903;SDS011;49000;50.698;13.322;2023-11-18T02:16:41;8.17;;;4.40;;
62903;SDS011;49000;50.698;13.322;2023-11-18T02:19:16;4.80;;;3.60;;
62903;SDS011;49000;50.698;13.322;2023-11-18T02:21:49;5.07;;;3.73;;
62903;SDS011;49000;50.698;13.322;2023-11-18T02:24:26;4.30;;;3.20;;
62903;SDS011;49000;50.698;13.322;2023-11-18T02:26:56;4.13;;;2.97;;
62903;SDS011;49000;50.698;13.322;2023-11-18T02:29:22;6.60;;;3.77;;
62903;SDS011;49000;50.698;13.322;2023-11-18T02:31:49;5.37;;;3.47;;
62903;SDS011;49000;50.698;13.322;2023-11-18T02:34:22;4.67;;;3.33;;
62903;SDS011;49000;50.698;13.322;2023-11-18T02:36:51;3.97;;;2.90;;
62903;SDS011;49000;50.698;13.322;2023-11-18T02:39:22;4.40;;;2.83;;
62903;SDS011;49000;50.698;13.322;2023-11-18T02:41:53;4.97;;;3.23;;
62903;SDS011;49000;50.698;13.322;2023-11-18T02:44:21;5.13;;;2.97;;
62903;SDS011;49000;50.698;13.322;2023-11-18T02:46:48;4.00;;;3.00;;
62903;SDS011;49000;50.698;13.322;2023-11-18T02:49:14;4.30;;;3.03;;
62903;SDS011;49000;50.698;13.322;2023-11-18T02:51:40;3.97;;;3.00;;
62903;SDS011;49000;50.698;13.322;2023-11-18T02:54:06;3.17;;;2.87;;
62903;SDS011;49000;50.698;13.322;2023-11-18T02:56:35;5.40;;;3.20;;
62903;SDS011;49000;50.698;13.322;2023-11-18T02:59:04;3.93;;;3.10;;
62903;SDS011;49000;50.698;13.322;2023-11-18T03:01:32;4.53;;;3.20;;
62903;SDS011;49000;50.698;13.322;2023-11-18T03:04:04;4.73;;;3.43;;
62903;SDS011;49000;50.698;13.322;2023-11-18T03:06:30;5.40;;;3.30;;
62903;SDS011;49000;50.698;13.322;2023-11-18T03:08:57;4.90;;;3.13;;
62903;SDS011;49000;50.698;13.322;2023-11-18T03:11:22;4.40;;;3.27;;
62903;SDS011;49000;50.698;13.322;2023-11-18T03:13:48;4.53;;;3.40;;
62903;SDS011;49000;50.698;13.322;2023-11-18T03:16:14;5.13;;;3.80;;
62903;SDS011;49000;50.698;13.322;2023-11-18T03:18:40;4.47;;;3.50;;
62903;SDS011;49000;50.698;13.322;2023-11-18T03:21:13;5.07;;;4.00;;
62903;SDS011;49000;50.698;13.322;2023-11-18T03:23:40;7.20;;;3.40;;
62903;SDS011;49000;50.698;13.322;2023-11-18T03:26:06;4.70;;;3.50;;
62903;SDS011;49000;50.698;13.322;2023-11-18T03:28:33;4.33;;;3.50;;
62903;SDS011;49000;50.698;13.322;2023-11-18T03:30:58;4.83;;;3.40;;
62903;SDS011;49000;50.698;13.322;2023-11-18T03:33:24;4.43;;;3.33;;
62903;SDS011;49000;50.698;13.322;2023-11-18T03:35:50;6.83;;;3.70;;
62903;SDS011;49000;50.698;13.322;2023-11-18T03:38:15;4.90;;;3.30;;
62903;SDS011;49000;50.698;13.322;2023-11-18T03:40:42;5.73;;;3.70;;
62903;SDS011;49000;50.698;13.322;2023-11-18T03:43:09;4.87;;;3.43;;
62903;SDS011;49000;50.698;13.322;2023-11-18T03:45:37;6.07;;;4.00;;
62903;SDS011;49000;50.698;13.322;2023-11-18T03:48:04;4.77;;;3.90;;
62903;SDS011;49000;50.698;13.322;2023-11-18T03:50:29;6.37;;;3.77;;
62903;SDS011;49000;50.698;13.322;2023-11-18T03:52:55;5.23;;;4.17;;
62903;SDS011;49000;50.698;13.322;2023-11-18T03:55:20;6.40;;;3.60;;
62903;SDS011;49000;50.698;13.322;2023-11-18T03:57:46;10.23;;;3.73;;
62903;SDS011;49000;50.698;13.322;2023-11-18T04:00:14;6.10;;;4.33;;
62903;SDS011;49000;50.698;13.322;2023-11-18T04:02:41;4.77;;;3.73;;
62903;SDS011;49000;50.698;13.322;2023-11-18T04:05:06;5.87;;;4.30;;
62903;SDS011;49000;50.698;13.322;2023-11-18T04:07:33;5.67;;;4.20;;
62903;SDS011;49000;50.698;13.322;2023-11-18T04:09:59;8.53;;;4.60;;
62903;SDS011;49000;50.698;13.322;2023-11-18T04:12:25;6.20;;;4.20;;
62903;SDS011;49000;50.698;13.322;2023-11-18T04:14:51;4.20;;;3.40;;
62903;SDS011;49000;50.698;13.322;2023-11-18T04:17:17;6.93;;;4.00;;
62903;SDS011;49000;50.698;13.322;2023-11-18T04:19:43;4.97;;;3.80;;
62903;SDS011;49000;50.698;13.322;2023-11-18T04:22:08;5.93;;;4.70;;
62903;SDS011;49000;50.698;13.322;2023-11-18T04:24:34;8.07;;;4.40;;
62903;SDS011;49000;50.698;13.322;2023-11-18T04:27:00;7.50;;;4.93;;
62903;SDS011;49000;50.698;13.322;2023-11-18T04:29:26;7.40;;;5.13;;
62903;SDS011;49000;50.698;13.322;2023-11-18T04:31:51;6.90;;;4.63;;
62903;SDS011;49000;50.698;13.322;2023-11-18T04:34:18;6.40;;;4.27;;
62903;SDS011;49000;50.698;13.322;2023-11-18T04:36:44;6.20;;;4.33;;
62903;SDS011;49000;50.698;13.322;2023-11-18T04:39:09;7.20;;;4.77;;
62903;SDS011;49000;50.698;13.322;2023-11-18T04:41:37;8.23;;;5.13;;
62903;SDS011;49000;50.698;13.322;2023-11-18T04:44:03;7.90;;;5.00;;
62903;SDS011;49000;50.698;13.322;2023-11-18T04:46:29;6.50;;;4.47;;
62903;SDS011;49000;50.698;13.322;2023-11-18T04:48:54;6.13;;;4.47;;
62903;SDS011;49000;50.698;13.322;2023-11-18T04:51:21;5.50;;;4.30;;
62903;SDS011;49000;50.698;13.322;2023-11-18T04:53:47;7.57;;;4.70;;
62903;SDS011;49000;50.698;13.322;2023-11-18T04:56:13;7.53;;;4.70;;
62903;SDS011;49000;50.698;13.322;2023-11-18T04:58:41;7.73;;;5.03;;
62903;SDS011;49000;50.698;13.322;2023-11-18T05:01:07;5.80;;;4.10;;
62903;SDS011;49000;50.698;13.322;2023-11-18T05:03:33;6.03;;;4.20;;
62903;SDS011;49000;50.698;13.322;2023-11-18T05:05:59;7.53;;;4.83;;
62903;SDS011;49000;50.698;13.322;2023-11-18T05:08:25;7.73;;;4.53;;
62903;SDS011;49000;50.698;13.322;2023-11-18T05:10:51;5.40;;;4.20;;
62903;SDS011;49000;50.698;13.322;2023-11-18T05:13:16;6.20;;;4.83;;
62903;SDS011;49000;50.698;13.322;2023-11-18T05:15:43;8.00;;;4.80;;
62903;SDS011;49000;50.698;13.322;2023-11-18T05:18:12;7.20;;;5.00;;
62903;SDS011;49000;50.698;13.322;2023-11-18T05:20:41;7.60;;;5.10;;
62903;SDS011;49000;50.698;13.322;2023-11-18T05:23:07;9.00;;;5.80;;
62903;SDS011;49000;50.698;13.322;2023-11-18T05:25:36;8.83;;;5.27;;
62903;SDS011;49000;50.698;13.322;2023-11-18T05:28:04;9.13;;;6.17;;
62903;SDS011;49000;50.698;13.322;2023-11-18T05:30:32;9.27;;;5.60;;
62903;SDS011;49000;50.698;13.322;2023-11-18T05:32:58;8.77;;;5.07;;
62903;SDS011;49000;50.698;13.322;2023-11-18T05:35:23;7.50;;;4.30;;
62903;SDS011;49000;50.698;13.322;2023-11-18T05:37:53;7.63;;;5.30;;
62903;SDS011;49000;50.698;13.322;2023-11-18T05:40:19;9.30;;;5.17;;
62903;SDS011;49000;50.698;13.322;2023-11-18T05:42:45;7.97;;;5.40;;
62903;SDS011;49000;50.698;13.322;2023-11-18T05:45:13;9.20;;;5.77;;
62903;SDS011;49000;50.698;13.322;2023-11-18T05:47:52;8.30;;;5.93;;
62903;SDS011;49000;50.698;13.322;2023-11-18T05:50:22;8.87;;;5.87;;
62903;SDS011;49000;50.698;13.322;2023-11-18T05:52:50;8.07;;;6.07;;
62903;SDS011;49000;50.698;13.322;2023-11-18T05:55:17;8.10;;;5.73;;
62903;SDS011;49000;50.698;13.322;2023-11-18T05:57:42;8.10;;;5.70;;
62903;SDS011;49000;50.698;13.322;2023-11-18T06:00:13;7.93;;;5.97;;
62903;SDS011;49000;50.698;13.322;2023-11-18T06:02:41;8.93;;;5.90;;
62903;SDS011;49000;50.698;13.322;2023-11-18T06:05:07;8.93;;;6.30;;
62903;SDS011;49000;50.698;13.322;2023-11-18T06:07:34;9.10;;;6.17;;
62903;SDS011;49000;50.698;13.322;2023-11-18T06:10:00;8.87;;;5.90;;
62903;SDS011;49000;50.698;13.322;2023-11-18T06:12:27;8.70;;;5.80;;
62903;SDS011;49000;50.698;13.322;2023-11-18T06:14:52;8.50;;;5.80;;
62903;SDS011;49000;50.698;13.322;2023-11-18T06:17:18;9.80;;;5.93;;
62903;SDS011;49000;50.698;13.322;2023-11-18T06:19:44;11.63;;;6.73;;
62903;SDS011;49000;50.698;13.322;2023-11-18T06:22:09;9.40;;;6.70;;
62903;SDS011;49000;50.698;13.322;2023-11-18T06:24:35;8.93;;;5.73;;
62903;SDS011;49000;50.698;13.322;2023-11-18T06:27:01;10.00;;;6.23;;
62903;SDS011;49000;50.698;13.322;2023-11-18T06:29:26;11.97;;;6.30;;
62903;SDS011;49000;50.698;13.322;2023-11-18T06:31:54;10.87;;;6.57;;
62903;SDS011;49000;50.698;13.322;2023-11-18T06:34:19;10.70;;;6.30;;
62903;SDS011;49000;50.698;13.322;2023-11-18T06:36:45;11.70;;;7.07;;
62903;SDS011;49000;50.698;13.322;2023-11-18T06:39:11;10.53;;;6.30;;
62903;SDS011;49000;50.698;13.322;2023-11-18T06:41:38;8.73;;;6.23;;
62903;SDS011;49000;50.698;13.322;2023-11-18T06:44:13;9.33;;;6.17;;
62903;SDS011;49000;50.698;13.322;2023-11-18T06:46:43;10.13;;;6.57;;
62903;SDS011;49000;50.698;13.322;2023-11-18T06:49:09;9.97;;;5.80;;
62903;SDS011;49000;50.698;13.322;2023-11-18T06:51:40;10.13;;;6.97;;
62903;SDS011;49000;50.698;13.322;2023-11-18T06:54:06;11.60;;;6.47;;
62903;SDS011;49000;50.698;13.322;2023-11-18T06:56:36;9.67;;;6.40;;
62903;SDS011;49000;50.698;13.322;2023-11-18T06:59:03;11.17;;;7.00;;
62903;SDS011;49000;50.698;13.322;2023-11-18T07:01:32;9.47;;;5.73;;
62903;SDS011;49000;50.698;13.322;2023-11-18T07:04:01;9.23;;;6.10;;
62903;SDS011;49000;50.698;13.322;2023-11-18T07:06:27;9.13;;;6.20;;
62903;SDS011;49000;50.698;13.322;2023-11-18T07:08:54;9.90;;;5.93;;
62903;SDS011;49000;50.698;13.322;2023-11-18T07:11:21;9.73;;;6.50;;
62903;SDS011;49000;50.698;13.322;2023-11-18T07:13:47;11.10;;;6.47;;
62903;SDS011;49000;50.698;13.322;2023-11-18T07:16:14;10.50;;;6.70;;
62903;SDS011;49000;50.698;13.322;2023-11-18T07:18:39;11.20;;;6.67;;
62903;SDS011;49000;50.698;13.322;2023-11-18T07:21:07;10.93;;;6.40;;
62903;SDS011;49000;50.698;13.322;2023-11-18T07:23:34;11.90;;;7.73;;
62903;SDS011;49000;50.698;13.322;2023-11-18T07:26:00;11.20;;;6.90;;
62903;SDS011;49000;50.698;13.322;2023-11-18T07:28:26;10.67;;;6.97;;
62903;SDS011;49000;50.698;13.322;2023-11-18T07:30:52;9.40;;;6.43;;
62903;SDS011;49000;50.698;13.322;2023-11-18T07:33:19;11.43;;;6.77;;
62903;SDS011;49000;50.698;13.322;2023-11-18T07:35:45;10.80;;;7.17;;
62903;SDS011;49000;50.698;13.322;2023-11-18T07:38:15;10.33;;;6.87;;
62903;SDS011;49000;50.698;13.322;2023-11-18T07:40:42;11.90;;;7.20;;
62903;SDS011;49000;50.698;13.322;2023-11-18T07:43:17;10.30;;;6.97;;
62903;SDS011;49000;50.698;13.322;2023-11-18T07:45:43;10.13;;;6.73;;
62903;SDS011;49000;50.698;13.322;2023-11-18T07:48:11;12.03;;;6.77;;
62903;SDS011;49000;50.698;13.322;2023-11-18T07:50:37;10.37;;;6.40;;
62903;SDS011;49000;50.698;13.322;2023-11-18T07:53:06;10.50;;;6.67;;
62903;SDS011;49000;50.698;13.322;2023-11-18T07:55:32;12.57;;;7.77;;
62903;SDS011;49000;50.698;13.322;2023-11-18T07:58:04;12.13;;;7.10;;
62903;SDS011;49000;50.698;13.322;2023-11-18T08:00:36;9.63;;;6.83;;
62903;SDS011;49000;50.698;13.322;2023-11-18T08:03:03;10.37;;;6.63;;
62903;SDS011;49000;50.698;13.322;2023-11-18T08:05:32;11.40;;;6.90;;
62903;SDS011;49000;50.698;13.322;2023-11-18T08:07:58;13.20;;;7.07;;
62903;SDS011;49000;50.698;13.322;2023-11-18T08:10:24;9.97;;;6.13;;
62903;SDS011;49000;50.698;13.322;2023-11-18T08:12:51;9.37;;;6.27;;
62903;SDS011;49000;50.698;13.322;2023-11-18T08:15:19;10.27;;;6.13;;
62903;SDS011;49000;50.698;13.322;2023-11-18T08:17:45;9.97;;;6.40;;
62903;SDS011;49000;50.698;13.322;2023-11-18T08:20:10;8.80;;;6.10;;
62903;SDS011;49000;50.698;13.322;2023-11-18T08:22:41;8.40;;;5.93;;
62903;SDS011;49000;50.698;13.322;2023-11-18T08:25:09;8.57;;;6.13;;
62903;SDS011;49000;50.698;13.322;2023-11-18T08:27:35;9.30;;;6.27;;
62903;SDS011;49000;50.698;13.322;2023-11-18T08:30:01;10.17;;;6.67;;
62903;SDS011;49000;50.698;13.322;2023-11-18T08:32:31;10.70;;;7.27;;
62903;SDS011;49000;50.698;13.322;2023-11-18T08:34:56;9.87;;;6.70;;
62903;SDS011;49000;50.698;13.322;2023-11-18T08:37:22;10.57;;;6.70;;
62903;SDS011;49000;50.698;13.322;2023-11-18T08:39:47;9.67;;;5.53;;
62903;SDS011;49000;50.698;13.322;2023-11-18T08:42:13;9.40;;;6.07;;
62903;SDS011;49000;50.698;13.322;2023-11-18T08:44:39;10.63;;;6.63;;
62903;SDS011;49000;50.698;13.322;2023-11-18T08:47:05;9.63;;;6.77;;
62903;SDS011;49000;50.698;13.322;2023-11-18T08:49:33;9.13;;;6.50;;
62903;SDS011;49000;50.698;13.322;2023-11-18T08:51:59;9.73;;;6.33;;
62903;SDS011;49000;50.698;13.322;2023-11-18T08:54:24;10.43;;;6.63;;
62903;SDS011;49000;50.698;13.322;2023-11-18T08:57:03;9.07;;;6.67;;
62903;SDS011;49000;50.698;13.322;2023-11-18T08:59:44;11.97;;;7.20;;
62903;SDS011;49000;50.698;13.322;2023-11-18T09:02:10;10.87;;;7.37;;
62903;SDS011;49000;50.698;13.322;2023-11-18T09:04:40;10.50;;;5.93;;
62903;SDS011;49000;50.698;13.322;2023-11-18T09:07:08;8.97;;;6.03;;
62903;SDS011;49000;50.698;13.322;2023-11-18T09:09:35;10.53;;;7.07;;
62903;SDS011;49000;50.698;13.322;2023-11-18T09:12:00;9.13;;;6.70;;
62903;SDS011;49000;50.698;13.322;2023-11-18T09:14:27;9.90;;;6.80;;
62903;SDS011;49000;50.698;13.322;2023-11-18T09:16:53;10.77;;;7.53;;
62903;SDS011;49000;50.698;13.322;2023-11-18T09:19:24;10.27;;;7.43;;
62903;SDS011;49000;50.698;13.322;2023-11-18T09:21:50;10.60;;;6.97;;
62903;SDS011;49000;50.698;13.322;2023-11-18T09:24:16;10.67;;;7.10;;
62903;SDS011;49000;50.698;13.322;2023-11-18T09:26:44;10.10;;;6.50;;
62903;SDS011;49000;50.698;13.322;2023-11-18T09:29:13;9.57;;;6.53;;
62903;SDS011;49000;50.698;13.322;2023-11-18T09:31:42;9.90;;;5.83;;
62903;SDS011;49000;50.698;13.322;2023-11-18T09:34:13;7.60;;;5.27;;
62903;SDS011;49000;50.698;13.322;2023-11-18T09:36:42;9.43;;;6.00;;
62903;SDS011;49000;50.698;13.322;2023-11-18T09:39:08;9.70;;;5.93;;
62903;SDS011;49000;50.698;13.322;2023-11-18T09:41:40;8.93;;;6.50;;
62903;SDS011;49000;50.698;13.322;2023-11-18T09:44:06;10.43;;;6.17;;
62903;SDS011;49000;50.698;13.322;2023-11-18T09:46:32;7.50;;;5.70;;
62903;SDS011;49000;50.698;13.322;2023-11-18T09:49:22;10.17;;;5.77;;
62903;SDS011;49000;50.698;13.322;2023-11-18T09:51:58;8.57;;;5.90;;
62903;SDS011;49000;50.698;13.322;2023-11-18T09:54:30;10.07;;;6.77;;
62903;SDS011;49000;50.698;13.322;2023-11-18T09:59:55;8.47;;;6.17;;
62903;SDS011;49000;50.698;13.322;2023-11-18T10:02:47;8.43;;;5.73;;
62903;SDS011;49000;50.698;13.322;2023-11-18T10:05:15;8.53;;;6.27;;
62903;SDS011;49000;50.698;13.322;2023-11-18T10:07:45;10.30;;;6.57;;
62903;SDS011;49000;50.698;13.322;2023-11-18T10:10:14;8.37;;;5.63;;
62903;SDS011;49000;50.698;13.322;2023-11-18T10:12:41;7.97;;;4.50;;
62903;SDS011;49000;50.698;13.322;2023-11-18T10:15:09;5.93;;;4.10;;
62903;SDS011;49000;50.698;13.322;2023-11-18T10:17:41;5.93;;;4.60;;
62903;SDS011;49000;50.698;13.322;2023-11-18T10:20:20;6.60;;;4.73;;
62903;SDS011;49000;50.698;13.322;2023-11-18T10:22:50;7.90;;;4.87;;
62903;SDS011;49000;50.698;13.322;2023-11-18T10:25:35;8.60;;;5.60;;
62903;SDS011;49000;50.698;13.322;2023-11-18T10:31:05;8.53;;;5.57;;
62903;SDS011;49000;50.698;13.322;2023-11-18T10:33:36;6.47;;;4.97;;
62903;SDS011;49000;50.698;13.322;2023-11-18T10:36:03;9.77;;;5.07;;
62903;SDS011;49000;50.698;13.322;2023-11-18T10:38:30;8.80;;;5.27;;
62903;SDS011;49000;50.698;13.322;2023-11-18T10:40:57;8.27;;;5.73;;
62903;SDS011;49000;50.698;13.322;2023-11-18T10:43:27;9.03;;;6.37;;
62903;SDS011;49000;50.698;13.322;2023-11-18T10:46:04;8.27;;;6.07;;
62903;SDS011;49000;50.698;13.322;2023-11-18T10:48:36;9.97;;;6.20;;
62903;SDS011;49000;50.698;13.322;2023-11-18T10:51:06;12.33;;;7.20;;
62903;SDS011;49000;50.698;13.322;2023-11-18T10:53:32;10.30;;;6.90;;
62903;SDS011;49000;50.698;13.322;2023-11-18T10:55:58;9.93;;;6.23;;
62903;SDS011;49000;50.698;13.322;2023-11-18T10:58:23;11.57;;;7.37;;
62903;SDS011;49000;50.698;13.322;2023-11-18T11:00:50;9.20;;;6.50;;
62903;SDS011;49000;50.698;13.322;2023-11-18T11:03:20;8.80;;;6.67;;
62903;SDS011;49000;50.698;13.322;2023-11-18T11:05:48;10.07;;;6.80;;
62903;SDS011;49000;50.698;13.322;2023-11-18T11:08:19;9.90;;;7.17;;
62903;SDS011;49000;50.698;13.322;2023-11-18T11:10:45;9.83;;;6.73;;
62903;SDS011;49000;50.698;13.322;2023-11-18T11:13:13;9.37;;;7.00;;
62903;SDS011;49000;50.698;13.322;2023-11-18T11:15:43;9.57;;;7.00;;
62903;SDS011;49000;50.698;13.322;2023-11-18T11:18:14;12.47;;;6.73;;
62903;SDS011;49000;50.698;13.322;2023-11-18T11:20:57;10.57;;;6.83;;
62903;SDS011;49000;50.698;13.322;2023-11-18T11:29:36;11.83;;;7.60;;
62903;SDS011;49000;50.698;13.322;2023-11-18T11:32:11;11.07;;;7.77;;
62903;SDS011;49000;50.698;13.322;2023-11-18T11:34:48;12.60;;;8.50;;
62903;SDS011;49000;50.698;13.322;2023-11-18T11:37:19;11.50;;;7.67;;
62903;SDS011;49000;50.698;13.322;2023-11-18T11:39:47;11.53;;;8.00;;
62903;SDS011;49000;50.698;13.322;2023-11-18T11:42:15;9.70;;;7.73;;
62903;SDS011;49000;50.698;13.322;2023-11-18T11:44:46;10.20;;;6.40;;
62903;SDS011;49000;50.698;13.322;2023-11-18T11:47:13;9.67;;;6.30;;
62903;SDS011;49000;50.698;13.322;2023-11-18T11:49:45;9.23;;;6.33;;
62903;SDS011;49000;50.698;13.322;2023-11-18T11:52:28;9.30;;;6.43;;
62903;SDS011;49000;50.698;13.322;2023-11-18T11:57:38;8.20;;;5.30;;
62903;SDS011;49000;50.698;13.322;2023-11-18T12:00:04;7.20;;;5.60;;
62903;SDS011;49000;50.698;13.322;2023-11-18T12:02:40;6.77;;;5.43;;
62903;SDS011;49000;50.698;13.322;2023-11-18T12:05:19;8.87;;;6.43;;
62903;SDS011;49000;50.698;13.322;2023-11-18T12:07:50;9.60;;;6.27;;
62903;SDS011;49000;50.698;13.322;2023-11-18T12:10:19;7.07;;;5.43;;
62903;SDS011;49000;50.698;13.322;2023-11-18T12:12:48;6.73;;;5.33;;
62903;SDS011;49000;50.698;13.322;2023-11-18T12:15:13;7.53;;;5.50;;
62903;SDS011;49000;50.698;13.322;2023-11-18T12:18:16;8.17;;;5.10;;
62903;SDS011;49000;50.698;13.322;2023-11-18T12:20:38;7.33;;;5.53;;
62903;SDS011;49000;50.698;13.322;2023-11-18T12:23:13;9.50;;;5.37;;
62903;SDS011;49000;50.698;13.322;2023-11-18T12:25:42;8.90;;;5.57;;
62903;SDS011;49000;50.698;13.322;2023-11-18T12:28:17;8.60;;;5.20;;
62903;SDS011;49000;50.698;13.322;2023-11-18T12:30:46;8.40;;;6.23;;
62903;SDS011;49000;50.698;13.322;2023-11-18T12:33:25;7.80;;;5.83;;
62903;SDS011;49000;50.698;13.322;2023-11-18T12:36:22;8.40;;;5.77;;
62903;SDS011;49000;50.698;13.322;2023-11-18T12:39:08;6.30;;;5.30;;
62903;SDS011;49000;50.698;13.322;2023-11-18T12:42:01;8.80;;;5.43;;
62903;SDS011;49000;50.698;13.322;2023-11-18T12:44:31;8.00;;;5.40;;
62903;SDS011;49000;50.698;13.322;2023-11-18T12:47:04;5.63;;;4.50;;
62903;SDS011;49000;50.698;13.322;2023-11-18T12:49:40;6.87;;;4.37;;
62903;SDS011;49000;50.698;13.322;2023-11-18T12:52:07;6.13;;;4.23;;
62903;SDS011;49000;50.698;13.322;2023-11-18T12:54:33;7.27;;;4.30;;
62903;SDS011;49000;50.698;13.322;2023-11-18T12:57:02;4.93;;;4.03;;
62903;SDS011;49000;50.698;13.322;2023-11-18T12:59:31;4.87;;;3.97;;
62903;SDS011;49000;50.698;13.322;2023-11-18T13:02:01;5.13;;;4.00;;
62903;SDS011;49000;50.698;13.322;2023-11-18T13:04:30;5.73;;;4.17;;
62903;SDS011;49000;50.698;13.322;2023-11-18T13:06:55;7.17;;;4.33;;
62903;SDS011;49000;50.698;13.322;2023-11-18T13:09:23;5.80;;;4.17;;
62903;SDS011;49000;50.698;13.322;2023-11-18T13:12:00;4.60;;;3.93;;
62903;SDS011;49000;50.698;13.322;2023-11-18T13:14:31;9.20;;;4.90;;
62903;SDS011;49000;50.698;13.322;2023-11-18T13:17:13;5.13;;;4.20;;
62903;SDS011;49000;50.698;13.322;2023-11-18T13:19:43;5.90;;;4.63;;
62903;SDS011;49000;50.698;13.322;2023-11-18T13:22:10;6.37;;;4.70;;
62903;SDS011;49000;50.698;13.322;2023-11-18T13:24:37;6.37;;;4.43;;
62903;SDS011;49000;50.698;13.322;2023-11-18T13:27:08;5.83;;;4.70;;
62903;SDS011;49000;50.698;13.322;2023-11-18T13:29:37;5.97;;;4.30;;
62903;SDS011;49000;50.698;13.322;2023-11-18T13:32:06;5.47;;;4.57;;
62903;SDS011;49000;50.698;13.322;2023-11-18T13:34:35;5.73;;;4.73;;
62903;SDS011;49000;50.698;13.322;2023-11-18T13:37:05;6.13;;;5.20;;
62903;SDS011;49000;50.698;13.322;2023-11-18T13:39:32;5.60;;;4.43;;
62903;SDS011;49000;50.698;13.322;2023-11-18T13:41:58;6.13;;;4.97;;
62903;SDS011;49000;50.698;13.322;2023-11-18T13:44:42;7.13;;;3.73;;
62903;SDS011;49000;50.698;13.322;2023-11-18T13:47:09;6.27;;;4.47;;
62903;SDS011;49000;50.698;13.322;2023-11-18T13:49:39;5.53;;;4.10;;
62903;SDS011;49000;50.698;13.322;2023-11-18T13:52:05;5.33;;;4.03;;
62903;SDS011;49000;50.698;13.322;2023-11-18T13:54:36;6.00;;;4.23;;
62903;SDS011;49000;50.698;13.322;2023-11-18T13:57:03;5.27;;;3.90;;
62903;SDS011;49000;50.698;13.322;2023-11-18T13:59:30;4.73;;;3.80;;
62903;SDS011;49000;50.698;13.322;2023-11-18T14:01:57;5.30;;;4.10;;
62903;SDS011;49000;50.698;13.322;2023-11-18T14:04:23;5.67;;;4.07;;
62903;SDS011;49000;50.698;13.322;2023-11-18T14:06:53;10.17;;;3.97;;
62903;SDS011;49000;50.698;13.322;2023-11-18T14:09:22;6.03;;;4.17;;
62903;SDS011;49000;50.698;13.322;2023-11-18T14:11:50;5.30;;;3.83;;
62903;SDS011;49000;50.698;13.322;2023-11-18T14:14:16;6.33;;;4.50;;
62903;SDS011;49000;50.698;13.322;2023-11-18T14:16:42;7.30;;;4.13;;
62903;SDS011;49000;50.698;13.322;2023-11-18T14:19:08;8.77;;;6.00;;
62903;SDS011;49000;50.698;13.322;2023-11-18T14:21:36;10.60;;;5.90;;
62903;SDS011;49000;50.698;13.322;2023-11-18T14:24:01;20.70;;;14.30;;
62903;SDS011;49000;50.698;13.322;2023-11-18T14:26:28;16.27;;;11.77;;
62903;SDS011;49000;50.698;13.322;2023-11-18T14:28:55;7.37;;;5.27;;
62903;SDS011;49000;50.698;13.322;2023-11-18T14:31:21;8.03;;;4.27;;
62903;SDS011;49000;50.698;13.322;2023-11-18T14:33:47;4.23;;;3.30;;
62903;SDS011;49000;50.698;13.322;2023-11-18T14:36:13;4.90;;;3.43;;
62903;SDS011;49000;50.698;13.322;2023-11-18T14:38:39;5.67;;;3.40;;
62903;SDS011;49000;50.698;13.322;2023-11-18T14:41:05;4.27;;;3.20;;
62903;SDS011;49000;50.698;13.322;2023-11-18T14:43:32;5.27;;;2.80;;
62903;SDS011;49000;50.698;13.322;2023-11-18T14:45:58;3.90;;;2.60;;
62903;SDS011;49000;50.698;13.322;2023-11-18T14:48:24;4.20;;;2.90;;
62903;SDS011;49000;50.698;13.322;2023-11-18T14:50:50;4.70;;;3.27;;
62903;SDS011;49000;50.698;13.322;2023-11-18T14:53:15;5.10;;;3.67;;